createdAt,value
2016-05-15T00:00:13.075Z,990.53
2016-05-15T00:01:13.077Z,990.51
2016-05-15T00:02:13.065Z,990.51
2016-05-15T00:03:13.067Z,990.55
2016-05-15T00:04:13.211Z,990.54
2016-05-15T00:05:13.058Z,990.54
2016-05-15T00:06:13.060Z,990.56
2016-05-15T00:07:13.063Z,990.55
2016-05-15T00:08:13.065Z,990.57
2016-05-15T00:09:13.067Z,990.54
2016-05-15T00:10:13.070Z,990.56
2016-05-15T00:11:13.058Z,990.55
2016-05-15T00:12:13.060Z,990.56
2016-05-15T00:13:13.063Z,990.59
2016-05-15T00:14:13.065Z,990.53
2016-05-15T00:15:13.053Z,990.56
2016-05-15T00:16:13.056Z,990.56
2016-05-15T00:17:13.042Z,990.57
2016-05-15T00:18:13.061Z,990.55
2016-05-15T00:19:13.048Z,990.58
2016-05-15T00:20:13.034Z,990.6
2016-05-15T00:21:13.037Z,990.58
2016-05-15T00:22:13.040Z,990.58
2016-05-15T00:23:13.027Z,990.61
2016-05-15T00:24:13.031Z,990.6
2016-05-15T00:25:13.033Z,990.59
2016-05-15T00:26:13.036Z,990.65
2016-05-15T00:27:13.022Z,990.62
2016-05-15T00:28:13.025Z,990.66
2016-05-15T00:29:13.027Z,990.62
2016-05-15T00:30:13.030Z,990.62
2016-05-15T00:31:13.018Z,990.65
2016-05-15T00:32:13.021Z,990.65
2016-05-15T00:33:13.024Z,990.68
2016-05-15T00:34:13.026Z,990.68
2016-05-15T00:35:13.013Z,990.67
2016-05-15T00:36:13.015Z,990.66
2016-05-15T00:37:13.018Z,990.7
2016-05-15T00:38:13.021Z,990.67
2016-05-15T00:39:13.023Z,990.67
2016-05-15T00:40:13.010Z,990.65
2016-05-15T00:41:13.013Z,990.7
2016-05-15T00:42:13.000Z,990.69
2016-05-15T00:43:13.003Z,990.69
2016-05-15T00:44:13.006Z,990.73
2016-05-15T00:45:13.009Z,990.7
2016-05-15T00:46:12.995Z,990.64
2016-05-15T00:47:12.998Z,990.66
2016-05-15T00:48:13.001Z,990.67
2016-05-15T00:49:13.456Z,990.66
2016-05-15T00:50:12.991Z,990.64
2016-05-15T00:51:12.993Z,990.69
2016-05-15T00:52:12.981Z,990.69
2016-05-15T00:53:12.983Z,990.66
2016-05-15T00:54:13.033Z,990.68
2016-05-15T00:55:12.972Z,990.7
2016-05-15T00:56:12.975Z,990.71
2016-05-15T00:57:12.978Z,990.72
2016-05-15T00:58:12.981Z,990.69
2016-05-15T00:59:12.968Z,990.71
2016-05-15T01:00:12.971Z,990.71
2016-05-15T01:01:12.974Z,990.77
2016-05-15T01:02:12.960Z,990.75
2016-05-15T01:04:12.966Z,990.78
2016-05-15T01:05:12.969Z,990.78
2016-05-15T01:06:12.955Z,990.82
2016-05-15T01:07:12.958Z,990.82
2016-05-15T01:08:12.961Z,990.79
2016-05-15T01:09:12.963Z,990.84
2016-05-15T01:10:12.951Z,990.82
2016-05-15T01:11:12.954Z,990.88
2016-05-15T01:12:12.957Z,990.93
2016-05-15T01:13:12.943Z,990.85
2016-05-15T01:14:12.946Z,990.85
2016-05-15T01:15:12.948Z,990.94
2016-05-15T01:16:12.951Z,990.9
2016-05-15T01:17:12.938Z,990.91
2016-05-15T01:18:12.940Z,990.9
2016-05-15T01:19:12.928Z,990.9
2016-05-15T01:20:12.931Z,990.93
2016-05-15T01:21:12.933Z,990.94
2016-05-15T01:22:12.937Z,990.93
2016-05-15T01:23:12.923Z,990.92
2016-05-15T01:24:12.926Z,990.92
2016-05-15T01:25:12.928Z,990.95
2016-05-15T01:26:12.916Z,990.96
2016-05-15T01:27:12.919Z,990.96
2016-05-15T01:28:12.921Z,990.95
2016-05-15T01:29:12.924Z,990.94
2016-05-15T01:30:12.911Z,990.96
2016-05-15T01:31:12.913Z,990.98
2016-05-15T01:32:12.916Z,990.96
2016-05-15T01:33:12.903Z,990.96
2016-05-15T01:34:12.906Z,991
2016-05-15T01:35:12.908Z,990.97
2016-05-15T01:36:12.911Z,991
2016-05-15T01:37:12.899Z,991
2016-05-15T01:38:12.901Z,991.05
2016-05-15T01:39:12.888Z,991.01
2016-05-15T01:40:12.891Z,991.05
2016-05-15T01:41:12.877Z,991.04
2016-05-15T01:42:12.880Z,991.03
2016-05-15T01:43:12.882Z,991.06
2016-05-15T01:44:12.885Z,991.1
2016-05-15T01:45:12.888Z,991.13
2016-05-15T01:46:12.875Z,991.12
2016-05-15T01:47:12.893Z,991.1
2016-05-15T01:48:12.865Z,991.1
2016-05-15T01:49:12.868Z,991.12
2016-05-15T01:50:12.871Z,991.12
2016-05-15T01:51:12.873Z,991.12
2016-05-15T01:52:12.876Z,991.13
2016-05-15T01:53:12.863Z,991.13
2016-05-15T01:54:12.867Z,991.11
2016-05-15T01:55:12.853Z,991.11
2016-05-15T01:56:12.856Z,991.17
2016-05-15T01:57:12.842Z,991.2
2016-05-15T01:58:12.861Z,991.18
2016-05-15T01:59:12.848Z,991.16
2016-05-15T02:00:12.835Z,991.2
2016-05-15T02:01:12.853Z,991.23
2016-05-15T02:02:12.841Z,991.23
2016-05-15T02:03:12.828Z,991.25
2016-05-15T02:04:12.846Z,991.23
2016-05-15T02:05:12.833Z,991.26
2016-05-15T02:06:12.835Z,991.21
2016-05-15T02:07:12.822Z,991.29
2016-05-15T02:08:12.825Z,991.28
2016-05-15T02:09:12.827Z,991.32
2016-05-15T02:10:12.816Z,991.34
2016-05-15T02:11:12.833Z,991.41
2016-05-15T02:12:12.805Z,991.36
2016-05-15T02:13:12.807Z,991.38
2016-05-15T02:14:12.811Z,991.42
2016-05-15T02:15:12.798Z,991.41
2016-05-15T02:16:12.815Z,991.4
2016-05-15T02:17:12.804Z,991.42
2016-05-15T02:18:12.806Z,991.41
2016-05-15T02:19:12.792Z,991.45
2016-05-15T02:20:12.796Z,991.47
2016-05-15T02:21:12.798Z,991.45
2016-05-15T02:22:12.801Z,991.4
2016-05-15T02:23:12.787Z,991.46
2016-05-15T02:24:12.790Z,991.47
2016-05-15T02:25:12.778Z,991.46
2016-05-15T02:26:12.780Z,991.47
2016-05-15T02:27:12.767Z,991.47
2016-05-15T02:28:12.770Z,991.5
2016-05-15T02:29:12.773Z,991.51
2016-05-15T02:30:12.759Z,991.56
2016-05-15T02:31:12.762Z,991.57
2016-05-15T02:32:12.764Z,991.56
2016-05-15T02:33:12.768Z,991.56
2016-05-15T02:34:12.755Z,991.52
2016-05-15T02:35:12.757Z,991.57
2016-05-15T02:36:12.760Z,991.57
2016-05-15T02:37:12.763Z,991.56
2016-05-15T02:38:12.750Z,991.58
2016-05-15T02:39:12.752Z,991.57
2016-05-15T02:40:12.740Z,991.57
2016-05-15T02:41:12.743Z,991.57
2016-05-15T02:42:12.745Z,991.6
2016-05-15T02:43:12.732Z,991.61
2016-05-15T02:44:12.735Z,991.56
2016-05-15T02:45:12.738Z,991.57
2016-05-15T02:46:12.724Z,991.54
2016-05-15T02:47:12.727Z,991.58
2016-05-15T02:48:12.714Z,991.6
2016-05-15T02:49:12.717Z,991.58
2016-05-15T02:50:12.735Z,991.58
2016-05-15T02:51:12.706Z,991.6
2016-05-15T02:52:12.710Z,991.6
2016-05-15T02:53:12.712Z,991.59
2016-05-15T02:54:12.714Z,991.62
2016-05-15T02:55:12.717Z,991.56
2016-05-15T02:56:12.704Z,991.63
2016-05-15T02:57:12.692Z,991.64
2016-05-15T02:58:12.694Z,991.63
2016-05-15T02:59:12.698Z,991.62
2016-05-15T03:00:12.684Z,991.6
2016-05-15T03:01:12.686Z,991.66
2016-05-15T03:02:12.689Z,991.65
2016-05-15T03:03:12.677Z,991.64
2016-05-15T03:04:12.679Z,991.69
2016-05-15T03:05:12.682Z,991.72
2016-05-15T03:06:12.669Z,991.69
2016-05-15T03:07:12.672Z,991.75
2016-05-15T03:08:12.674Z,991.7
2016-05-15T03:09:12.677Z,991.74
2016-05-15T03:10:12.664Z,991.72
2016-05-15T03:11:12.666Z,991.74
2016-05-15T03:12:12.654Z,991.8
2016-05-15T03:13:12.657Z,991.81
2016-05-15T03:14:12.660Z,991.8
2016-05-15T03:15:12.646Z,991.8
2016-05-15T03:16:12.649Z,991.82
2016-05-15T03:17:12.636Z,991.77
2016-05-15T03:18:12.638Z,991.83
2016-05-15T03:19:12.641Z,991.85
2016-05-15T03:20:12.628Z,991.85
2016-05-15T03:21:12.632Z,991.86
2016-05-15T03:22:12.634Z,991.86
2016-05-15T03:23:12.636Z,991.89
2016-05-15T03:24:12.624Z,991.92
2016-05-15T03:25:12.626Z,991.95
2016-05-15T03:26:12.628Z,991.96
2016-05-15T03:27:12.617Z,991.96
2016-05-15T03:28:12.603Z,991.98
2016-05-15T03:29:12.606Z,991.97
2016-05-15T03:30:12.608Z,992.02
2016-05-15T03:31:12.611Z,992.01
2016-05-15T03:32:12.598Z,992.02
2016-05-15T03:33:12.600Z,992.01
2016-05-15T03:34:12.806Z,992.01
2016-05-15T03:35:12.591Z,992
2016-05-15T03:36:12.578Z,992.03
2016-05-15T03:37:12.580Z,992.03
2016-05-15T03:38:12.583Z,992.03
2016-05-15T03:39:12.586Z,992.03
2016-05-15T03:40:12.572Z,992.05
2016-05-15T03:41:12.591Z,992.1
2016-05-15T03:42:12.563Z,992.07
2016-05-15T03:43:12.566Z,992.05
2016-05-15T03:44:12.568Z,992.07
2016-05-15T03:45:12.554Z,992.06
2016-05-15T03:46:12.558Z,992.07
2016-05-15T03:47:12.560Z,992.06
2016-05-15T03:48:12.547Z,992.04
2016-05-15T03:49:12.551Z,992.07
2016-05-15T03:50:12.554Z,992.1
2016-05-15T03:51:12.540Z,992.12
2016-05-15T03:52:12.542Z,992.14
2016-05-15T03:53:12.530Z,992.14
2016-05-15T03:54:12.532Z,992.18
2016-05-15T03:55:12.534Z,992.17
2016-05-15T03:56:12.523Z,992.11
2016-05-15T03:57:12.525Z,992.18
2016-05-15T03:58:12.528Z,992.16
2016-05-15T03:59:12.514Z,992.15
2016-05-15T04:00:12.533Z,992.2
2016-05-15T04:01:12.504Z,992.16
2016-05-15T04:02:12.522Z,992.19
2016-05-15T04:03:12.509Z,992.24
2016-05-15T04:04:12.559Z,992.17
2016-05-15T04:05:12.515Z,992.21
2016-05-15T04:06:12.502Z,992.2
2016-05-15T04:07:12.489Z,992.27
2016-05-15T04:08:12.492Z,992.25
2016-05-15T04:09:12.494Z,992.24
2016-05-15T04:10:12.482Z,992.23
2016-05-15T04:11:12.485Z,992.19
2016-05-15T04:12:12.472Z,992.19
2016-05-15T04:13:12.474Z,992.23
2016-05-15T04:14:12.476Z,992.2
2016-05-15T04:15:12.480Z,992.18
2016-05-15T04:16:12.466Z,992.22
2016-05-15T04:17:12.468Z,992.24
2016-05-15T04:18:12.457Z,992.22
2016-05-15T04:19:12.802Z,992.29
2016-05-15T04:20:12.462Z,992.25
2016-05-15T04:21:12.465Z,992.26
2016-05-15T04:22:12.452Z,992.27
2016-05-15T04:23:12.454Z,992.29
2016-05-15T04:24:12.440Z,992.34
2016-05-15T04:25:12.444Z,992.31
2016-05-15T04:26:12.462Z,992.34
2016-05-15T04:27:12.449Z,992.34
2016-05-15T04:28:12.436Z,992.35
2016-05-15T04:29:12.423Z,992.38
2016-05-15T04:30:12.426Z,992.43
2016-05-15T04:31:12.428Z,992.41
2016-05-15T04:32:12.431Z,992.41
2016-05-15T04:33:12.419Z,992.42
2016-05-15T04:34:12.422Z,992.43
2016-05-15T04:35:12.408Z,992.43
2016-05-15T04:36:12.411Z,992.48
2016-05-15T04:37:12.414Z,992.51
2016-05-15T04:38:12.400Z,992.52
2016-05-15T04:39:12.403Z,992.55
2016-05-15T04:40:12.406Z,992.53
2016-05-15T04:41:12.393Z,992.56
2016-05-15T04:42:12.396Z,992.59
2016-05-15T04:43:12.399Z,992.55
2016-05-15T04:44:12.385Z,992.58
2016-05-15T04:45:12.388Z,992.57
2016-05-15T04:46:12.374Z,992.57
2016-05-15T04:47:12.378Z,992.6
2016-05-15T04:48:12.380Z,992.58
2016-05-15T04:49:12.446Z,992.55
2016-05-15T04:50:12.371Z,992.59
2016-05-15T04:51:12.357Z,992.55
2016-05-15T04:52:12.360Z,992.58
2016-05-15T04:53:12.363Z,992.61
2016-05-15T04:54:12.365Z,992.65
2016-05-15T04:55:12.368Z,992.57
2016-05-15T04:56:12.356Z,992.58
2016-05-15T04:57:12.359Z,992.6
2016-05-15T04:58:12.345Z,992.63
2016-05-15T04:59:12.348Z,992.64
2016-05-15T05:00:12.350Z,992.66
2016-05-15T05:01:12.337Z,992.66
2016-05-15T05:02:12.340Z,992.67
2016-05-15T05:03:12.342Z,992.68
2016-05-15T05:04:12.346Z,992.7
2016-05-15T05:05:12.333Z,992.71
2016-05-15T05:06:12.335Z,992.71
2016-05-15T05:07:12.323Z,992.74
2016-05-15T05:08:12.341Z,992.75
2016-05-15T05:09:12.327Z,992.77
2016-05-15T05:10:12.331Z,992.81
2016-05-15T05:11:12.317Z,992.75
2016-05-15T05:12:12.320Z,992.78
2016-05-15T05:13:12.322Z,992.95
2016-05-15T05:14:12.310Z,992.84
2016-05-15T05:15:12.313Z,992.81
2016-05-15T05:16:12.315Z,992.89
2016-05-15T05:17:12.318Z,992.87
2016-05-15T05:18:12.305Z,992.87
2016-05-15T05:19:12.308Z,992.88
2016-05-15T05:20:12.310Z,992.91
2016-05-15T05:21:12.313Z,992.95
2016-05-15T05:22:12.301Z,992.93
2016-05-15T05:23:12.303Z,992.95
2016-05-15T05:24:12.306Z,992.95
2016-05-15T05:25:12.308Z,992.99
2016-05-15T05:26:12.296Z,992.98
2016-05-15T05:27:12.298Z,992.97
2016-05-15T05:28:12.284Z,992.94
2016-05-15T05:29:12.288Z,992.98
2016-05-15T05:30:12.290Z,992.99
2016-05-15T05:31:12.292Z,993.01
2016-05-15T05:32:12.280Z,993.06
2016-05-15T05:33:12.284Z,993.08
2016-05-15T05:34:12.286Z,993.08
2016-05-15T05:35:12.272Z,993.07
2016-05-15T05:36:12.276Z,993.06
2016-05-15T05:37:12.278Z,993.06
2016-05-15T05:38:12.280Z,993.05
2016-05-15T05:39:12.283Z,993.05
2016-05-15T05:40:12.286Z,993.04
2016-05-15T05:41:12.273Z,993.22
2016-05-15T05:42:12.275Z,993.19
2016-05-15T05:43:12.278Z,993.08
2016-05-15T05:44:12.266Z,993.07
2016-05-15T05:45:12.268Z,993.13
2016-05-15T05:46:12.271Z,993.07
2016-05-15T05:47:12.258Z,993.07
2016-05-15T05:48:12.261Z,993.04
2016-05-15T05:49:12.279Z,993.08
2016-05-15T05:50:12.266Z,993.08
2016-05-15T05:51:12.269Z,993.13
2016-05-15T05:52:12.271Z,993.09
2016-05-15T05:53:12.274Z,993.08
2016-05-15T05:54:12.277Z,993.1
2016-05-15T05:55:12.279Z,993.13
2016-05-15T05:56:12.251Z,993.13
2016-05-15T05:57:12.254Z,993.13
2016-05-15T05:58:12.256Z,993.12
2016-05-15T05:59:12.259Z,993.17
2016-05-15T06:00:12.261Z,993.17
2016-05-15T06:01:12.249Z,993.19
2016-05-15T06:02:12.251Z,993.23
2016-05-15T06:03:12.254Z,993.17
2016-05-15T06:04:12.257Z,993.15
2016-05-15T06:05:12.259Z,993.16
2016-05-15T06:06:12.247Z,993.21
2016-05-15T06:07:12.250Z,993.16
2016-05-15T06:08:12.252Z,993.18
2016-05-15T06:09:12.255Z,993.13
2016-05-15T06:10:12.241Z,993.2
2016-05-15T06:11:12.261Z,993.18
2016-05-15T06:12:12.247Z,993.19
2016-05-15T06:13:12.250Z,993.16
2016-05-15T06:14:12.252Z,993.17
2016-05-15T06:15:12.239Z,993.2
2016-05-15T06:16:12.242Z,993.32
2016-05-15T06:17:12.244Z,993.23
2016-05-15T06:18:12.248Z,993.25
2016-05-15T06:19:12.250Z,993.27
2016-05-15T06:20:12.237Z,993.16
2016-05-15T06:21:12.256Z,993.14
2016-05-15T06:22:12.243Z,993.18
2016-05-15T06:23:12.245Z,993.21
2016-05-15T06:24:12.248Z,993.16
2016-05-15T06:25:12.251Z,993.19
2016-05-15T06:26:12.254Z,993.19
2016-05-15T06:27:12.256Z,993.21
2016-05-15T06:28:12.243Z,993.29
2016-05-15T06:29:12.246Z,993.26
2016-05-15T06:30:12.248Z,993.23
2016-05-15T06:31:12.251Z,993.29
2016-05-15T06:32:12.254Z,993.25
2016-05-15T06:33:12.257Z,993.24
2016-05-15T06:34:12.400Z,993.27
2016-05-15T06:35:12.247Z,993.26
2016-05-15T06:36:12.250Z,993.3
2016-05-15T06:37:12.252Z,993.29
2016-05-15T06:38:12.255Z,993.35
2016-05-15T06:39:12.257Z,993.31
2016-05-15T06:40:12.261Z,993.33
2016-05-15T06:41:12.263Z,993.25
2016-05-15T06:42:12.265Z,993.29
2016-05-15T06:43:12.269Z,993.23
2016-05-15T06:44:12.271Z,993.28
2016-05-15T06:45:12.274Z,993.28
2016-05-15T06:46:12.276Z,993.31
2016-05-15T06:47:12.280Z,993.32
2016-05-15T06:48:12.297Z,993.36
2016-05-15T06:49:12.549Z,993.36
2016-05-15T06:50:12.303Z,993.34
2016-05-15T06:51:12.305Z,993.24
2016-05-15T06:52:12.307Z,993.25
2016-05-15T06:53:12.310Z,993.29
2016-05-15T06:54:12.329Z,993.35
2016-05-15T06:55:12.316Z,993.33
2016-05-15T06:56:12.334Z,993.4
2016-05-15T06:57:12.321Z,993.35
2016-05-15T06:58:12.340Z,993.48
2016-05-15T06:59:12.326Z,993.43
2016-05-15T07:00:12.345Z,993.51
2016-05-15T07:01:12.332Z,993.43
2016-05-15T07:02:12.351Z,993.51
2016-05-15T07:03:12.353Z,993.41
2016-05-15T07:04:12.543Z,993.43
2016-05-15T07:05:12.359Z,993.47
2016-05-15T07:06:12.361Z,993.42
2016-05-15T07:07:12.363Z,993.41
2016-05-15T07:08:12.367Z,993.41
2016-05-15T07:09:12.369Z,993.4
2016-05-15T07:10:12.372Z,993.52
2016-05-15T07:11:12.374Z,993.48
2016-05-15T07:12:12.393Z,993.48
2016-05-15T07:13:12.395Z,993.53
2016-05-15T07:14:12.413Z,993.48
2016-05-15T07:15:12.401Z,993.49
2016-05-15T07:16:12.419Z,993.56
2016-05-15T07:17:12.406Z,993.57
2016-05-15T07:18:12.409Z,993.47
2016-05-15T07:19:12.411Z,993.49
2016-05-15T07:20:12.414Z,993.55
2016-05-15T07:21:12.416Z,993.56
2016-05-15T07:22:12.419Z,993.59
2016-05-15T07:23:12.422Z,993.57
2016-05-15T07:24:12.425Z,993.58
2016-05-15T07:25:12.427Z,993.5
2016-05-15T07:26:12.430Z,993.56
2016-05-15T07:27:12.433Z,993.54
2016-05-15T07:28:12.435Z,993.6
2016-05-15T07:29:12.438Z,993.65
2016-05-15T07:30:12.441Z,993.56
2016-05-15T07:31:12.444Z,993.53
2016-05-15T07:32:12.446Z,993.49
2016-05-15T07:33:12.449Z,993.54
2016-05-15T07:34:12.452Z,993.5
2016-05-15T07:35:12.454Z,993.58
2016-05-15T07:36:12.456Z,993.52
2016-05-15T07:37:12.460Z,993.48
2016-05-15T07:38:12.462Z,993.44
2016-05-15T07:39:12.485Z,993.47
2016-05-15T07:40:12.547Z,993.55
2016-05-15T07:41:12.578Z,993.49
2016-05-15T07:42:12.639Z,993.53
2016-05-15T07:43:12.669Z,993.53
2016-05-15T07:44:12.703Z,993.47
2016-05-15T07:45:12.721Z,993.48
2016-05-15T07:46:12.740Z,993.5
2016-05-15T07:47:12.758Z,993.51
2016-05-15T07:48:12.776Z,993.54
2016-05-15T07:49:12.915Z,993.52
2016-05-15T07:50:12.798Z,993.6
2016-05-15T07:51:12.791Z,993.59
2016-05-15T07:52:12.799Z,993.52
2016-05-15T07:53:21.089Z,993.53
2016-05-15T07:54:12.829Z,993.5
2016-05-15T07:55:12.833Z,993.59
2016-05-15T07:56:12.823Z,993.58
2016-05-15T07:57:12.827Z,993.56
2016-05-15T07:58:12.832Z,993.46
2016-05-15T07:59:12.836Z,993.53
2016-05-15T08:00:12.840Z,993.53
2016-05-15T08:01:12.843Z,993.53
2016-05-15T08:02:12.846Z,993.57
2016-05-15T08:03:12.865Z,993.56
2016-05-15T08:04:12.868Z,993.57
2016-05-15T08:05:12.871Z,993.53
2016-05-15T08:06:12.874Z,993.48
2016-05-15T08:07:12.878Z,993.53
2016-05-15T08:08:12.881Z,993.62
2016-05-15T08:09:12.899Z,993.72
2016-05-15T08:10:12.887Z,993.63
2016-05-15T08:11:12.905Z,993.62
2016-05-15T08:12:12.891Z,993.62
2016-05-15T08:13:12.894Z,993.56
2016-05-15T08:14:12.913Z,993.62
2016-05-15T08:15:12.916Z,993.58
2016-05-15T08:16:12.918Z,993.59
2016-05-15T08:17:12.937Z,993.53
2016-05-15T08:18:12.924Z,993.6
2016-05-15T08:19:12.926Z,993.58
2016-05-15T08:20:12.929Z,993.57
2016-05-15T08:21:12.932Z,993.59
2016-05-15T08:22:12.935Z,993.57
2016-05-15T08:23:12.937Z,993.57
2016-05-15T08:24:12.924Z,993.6
2016-05-15T08:25:12.943Z,993.68
2016-05-15T08:26:12.945Z,993.67
2016-05-15T08:27:12.948Z,993.66
2016-05-15T08:28:12.997Z,993.73
2016-05-15T08:29:13.017Z,993.7
2016-05-15T08:30:12.940Z,993.66
2016-05-15T08:31:12.942Z,993.71
2016-05-15T08:32:12.945Z,993.78
2016-05-15T08:33:12.948Z,993.87
2016-05-15T08:34:12.951Z,993.8
2016-05-15T08:35:12.953Z,993.7
2016-05-15T08:36:12.957Z,993.61
2016-05-15T08:37:12.959Z,993.58
2016-05-15T08:38:12.977Z,993.57
2016-05-15T08:39:12.965Z,993.43
2016-05-15T08:40:12.967Z,993.45
2016-05-15T08:41:12.969Z,993.45
2016-05-15T08:42:12.972Z,993.49
2016-05-15T08:43:12.975Z,993.48
2016-05-15T08:44:12.994Z,993.63
2016-05-15T08:45:13.012Z,993.62
2016-05-15T08:46:12.983Z,993.7
2016-05-15T08:47:12.986Z,993.74
2016-05-15T08:48:12.988Z,993.76
2016-05-15T08:49:12.991Z,993.77
2016-05-15T08:50:12.994Z,993.77
2016-05-15T08:51:12.997Z,993.76
2016-05-15T08:52:12.999Z,993.77
2016-05-15T08:53:13.002Z,993.78
2016-05-15T08:54:13.004Z,993.83
2016-05-15T08:55:13.007Z,993.79
2016-05-15T08:56:13.010Z,993.78
2016-05-15T08:57:13.013Z,993.77
2016-05-15T08:58:13.000Z,993.74
2016-05-15T08:59:13.018Z,993.79
2016-05-15T09:00:13.006Z,993.82
2016-05-15T09:01:13.008Z,993.88
2016-05-15T09:02:13.011Z,993.81
2016-05-15T09:03:13.014Z,993.8
2016-05-15T09:04:13.016Z,993.81
2016-05-15T09:05:13.270Z,993.75
2016-05-15T09:06:13.006Z,993.79
2016-05-15T09:07:13.008Z,993.72
2016-05-15T09:08:13.011Z,993.71
2016-05-15T09:09:13.013Z,993.66
2016-05-15T09:10:13.016Z,993.68
2016-05-15T09:11:13.020Z,993.69
2016-05-15T09:12:13.007Z,993.74
2016-05-15T09:13:13.024Z,993.78
2016-05-15T09:14:13.028Z,993.74
2016-05-15T09:15:13.015Z,993.85
2016-05-15T09:16:13.017Z,993.91
2016-05-15T09:17:13.020Z,993.89
2016-05-15T09:18:13.024Z,993.94
2016-05-15T09:19:13.026Z,993.86
2016-05-15T09:20:13.012Z,993.92
2016-05-15T09:21:13.031Z,993.95
2016-05-15T09:22:13.017Z,993.95
2016-05-15T09:23:13.021Z,993.97
2016-05-15T09:24:13.023Z,993.87
2016-05-15T09:25:13.026Z,993.89
2016-05-15T09:26:13.029Z,993.89
2016-05-15T09:27:13.031Z,993.84
2016-05-15T09:28:13.018Z,993.84
2016-05-15T09:29:13.021Z,993.83
2016-05-15T09:30:13.039Z,993.79
2016-05-15T09:31:13.026Z,993.78
2016-05-15T09:32:13.029Z,993.81
2016-05-15T09:33:13.031Z,993.78
2016-05-15T09:34:13.034Z,993.87
2016-05-15T09:35:13.022Z,993.84
2016-05-15T09:36:13.039Z,993.83
2016-05-15T09:37:13.027Z,993.79
2016-05-15T09:38:13.030Z,993.84
2016-05-15T09:39:13.033Z,993.92
2016-05-15T09:40:13.035Z,993.86
2016-05-15T09:41:13.038Z,993.78
2016-05-15T09:42:13.025Z,993.8
2016-05-15T09:43:13.043Z,993.87
2016-05-15T09:44:13.046Z,993.95
2016-05-15T09:45:13.204Z,993.85
2016-05-15T09:46:13.036Z,993.84
2016-05-15T09:47:13.038Z,993.87
2016-05-15T09:48:13.041Z,993.85
2016-05-15T09:49:13.043Z,993.84
2016-05-15T09:50:13.062Z,993.91
2016-05-15T09:51:13.033Z,993.92
2016-05-15T09:52:13.036Z,993.88
2016-05-15T09:53:13.038Z,993.94
2016-05-15T09:54:13.041Z,993.89
2016-05-15T09:55:13.043Z,993.89
2016-05-15T09:56:13.046Z,993.98
2016-05-15T09:57:13.049Z,993.85
2016-05-15T09:58:13.036Z,993.94
2016-05-15T09:59:13.040Z,993.91
2016-05-15T10:00:13.042Z,993.89
2016-05-15T10:01:13.045Z,993.87
2016-05-15T10:02:13.047Z,993.92
2016-05-15T10:03:13.050Z,993.95
2016-05-15T10:04:13.162Z,993.96
2016-05-15T10:05:13.039Z,993.99
2016-05-15T10:06:13.042Z,993.93
2016-05-15T10:07:13.045Z,993.95
2016-05-15T10:08:13.048Z,993.97
2016-05-15T10:09:13.050Z,993.93
2016-05-15T10:10:13.052Z,993.85
2016-05-15T10:11:13.055Z,993.82
2016-05-15T10:12:13.044Z,993.83
2016-05-15T10:13:13.061Z,993.85
2016-05-15T10:14:13.048Z,993.92
2016-05-15T10:15:13.052Z,993.89
2016-05-15T10:16:13.054Z,993.88
2016-05-15T10:17:13.072Z,993.87
2016-05-15T10:18:13.059Z,993.82
2016-05-15T10:19:13.422Z,993.85
2016-05-15T10:20:13.065Z,993.85
2016-05-15T10:21:13.052Z,993.82
2016-05-15T10:22:13.054Z,993.87
2016-05-15T10:23:13.072Z,993.84
2016-05-15T10:24:13.076Z,993.91
2016-05-15T10:25:13.062Z,993.87
2016-05-15T10:26:13.065Z,993.91
2016-05-15T10:27:13.051Z,993.94
2016-05-15T10:28:13.054Z,993.99
2016-05-15T10:29:13.057Z,994.07
2016-05-15T10:30:13.076Z,994.03
2016-05-15T10:31:13.062Z,993.99
2016-05-15T10:32:13.065Z,993.98
2016-05-15T10:33:13.068Z,993.89
2016-05-15T10:34:13.071Z,993.81
2016-05-15T10:35:13.151Z,993.81
2016-05-15T10:36:13.060Z,993.74
2016-05-15T10:37:13.064Z,993.87
2016-05-15T10:38:13.067Z,993.78
2016-05-15T10:39:13.069Z,993.82
2016-05-15T10:40:13.086Z,993.9
2016-05-15T10:41:13.075Z,993.95
2016-05-15T10:42:13.077Z,993.96
2016-05-15T10:43:13.064Z,994.01
2016-05-15T10:44:13.066Z,994.06
2016-05-15T10:45:13.069Z,994.08
2016-05-15T10:46:13.072Z,994.03
2016-05-15T10:47:13.075Z,994.01
2016-05-15T10:48:13.077Z,994.01
2016-05-15T10:49:13.080Z,994
2016-05-15T10:50:13.066Z,994.02
2016-05-15T10:51:13.086Z,994
2016-05-15T10:52:13.072Z,994.05
2016-05-15T10:53:13.074Z,994.05
2016-05-15T10:54:13.077Z,993.96
2016-05-15T10:55:13.079Z,993.92
2016-05-15T10:56:13.083Z,993.91
2016-05-15T10:57:13.070Z,993.91
2016-05-15T10:58:13.073Z,993.93
2016-05-15T10:59:13.075Z,994
2016-05-15T11:00:13.079Z,993.95
2016-05-15T11:01:13.081Z,994.05
2016-05-15T11:02:13.084Z,994.03
2016-05-15T11:03:13.086Z,994.01
2016-05-15T11:04:13.090Z,994
2016-05-15T11:05:13.075Z,994.04
2016-05-15T11:06:13.079Z,994.02
2016-05-15T11:07:13.081Z,993.98
2016-05-15T11:08:13.084Z,994.02
2016-05-15T11:09:13.086Z,994.04
2016-05-15T11:10:13.075Z,994.06
2016-05-15T11:11:13.077Z,994.01
2016-05-15T11:12:13.080Z,994.03
2016-05-15T11:13:13.082Z,994.08
2016-05-15T11:14:13.085Z,994.07
2016-05-15T11:15:13.087Z,994.09
2016-05-15T11:16:13.091Z,994.13
2016-05-15T11:17:13.093Z,994.1
2016-05-15T11:18:13.096Z,994.1
2016-05-15T11:19:13.082Z,994.17
2016-05-15T11:20:13.085Z,994.15
2016-05-15T11:21:13.088Z,994.15
2016-05-15T11:22:13.106Z,994.13
2016-05-15T11:23:13.093Z,994.11
2016-05-15T11:24:13.112Z,994.13
2016-05-15T11:25:13.098Z,994.18
2016-05-15T11:26:13.085Z,994.22
2016-05-15T11:27:13.088Z,994.15
2016-05-15T11:28:13.137Z,994.18
2016-05-15T11:29:13.093Z,994.22
2016-05-15T11:30:13.096Z,994.25
2016-05-15T11:31:13.099Z,994.29
2016-05-15T11:32:13.101Z,994.22
2016-05-15T11:33:13.104Z,994.19
2016-05-15T11:34:13.107Z,994.21
2016-05-15T11:35:13.188Z,994.23
2016-05-15T11:36:13.112Z,994.2
2016-05-15T11:37:13.131Z,994.17
2016-05-15T11:38:13.117Z,994.07
2016-05-15T11:39:13.105Z,994.15
2016-05-15T11:40:13.123Z,994.1
2016-05-15T11:41:13.111Z,994.09
2016-05-15T11:42:13.113Z,994.08
2016-05-15T11:43:13.116Z,994.15
2016-05-15T11:44:13.133Z,994.15
2016-05-15T11:45:13.122Z,994.17
2016-05-15T11:46:13.124Z,994.12
2016-05-15T11:47:13.127Z,994.07
2016-05-15T11:48:13.129Z,994.05
2016-05-15T11:49:13.116Z,994.08
2016-05-15T11:50:13.134Z,994.1
2016-05-15T11:51:13.138Z,994.13
2016-05-15T11:52:13.140Z,994.09
2016-05-15T11:53:13.143Z,994
2016-05-15T11:54:13.145Z,994.03
2016-05-15T11:55:13.148Z,994.15
2016-05-15T11:56:13.150Z,994.18
2016-05-15T11:57:13.138Z,994.23
2016-05-15T11:58:13.141Z,994.21
2016-05-15T11:59:13.143Z,994.22
2016-05-15T12:00:13.145Z,994.19
2016-05-15T12:01:13.164Z,994.19
2016-05-15T12:02:13.151Z,994.2
2016-05-15T12:03:13.154Z,994.18
2016-05-15T12:04:13.157Z,994.24
2016-05-15T12:05:13.159Z,994.23
2016-05-15T12:06:13.162Z,994.2
2016-05-15T12:07:13.148Z,994.13
2016-05-15T12:08:13.151Z,994.2
2016-05-15T12:09:13.154Z,994.17
2016-05-15T12:10:13.157Z,994.21
2016-05-15T12:11:13.159Z,994.18
2016-05-15T12:12:13.162Z,994.15
2016-05-15T12:13:13.165Z,994.2
2016-05-15T12:14:13.184Z,994.09
2016-05-15T12:15:13.170Z,994.15
2016-05-15T12:16:13.173Z,994.09
2016-05-15T12:17:13.175Z,994.13
2016-05-15T12:18:13.178Z,994.06
2016-05-15T12:19:13.180Z,994.08
2016-05-15T12:20:13.324Z,994.05
2016-05-15T12:21:13.187Z,994.04
2016-05-15T12:22:13.189Z,994.12
2016-05-15T12:23:13.192Z,994.19
2016-05-15T12:24:13.194Z,994.25
2016-05-15T12:25:13.197Z,994.17
2016-05-15T12:26:13.199Z,994.24
2016-05-15T12:27:13.203Z,994.2
2016-05-15T12:28:13.205Z,994.19
2016-05-15T12:29:13.208Z,994.22
2016-05-15T12:30:13.210Z,994.24
2016-05-15T12:31:13.213Z,994.23
2016-05-15T12:32:13.216Z,994.3